createdAt,value
2019-02-19T00:02:51.970Z,101686.98
2019-02-19T00:07:54.658Z,101687.30
2019-02-19T00:12:58.749Z,101689.95
2019-02-19T00:18:00.769Z,101688.73
2019-02-19T00:23:02.913Z,101689.14
2019-02-19T00:28:06.473Z,101696.97
2019-02-19T00:33:08.931Z,101702.51
2019-02-19T00:38:10.952Z,101705.11
2019-02-19T00:43:12.932Z,101705.23
2019-02-19T00:48:14.935Z,101696.95
2019-02-19T00:53:16.970Z,101701.41
2019-02-19T00:58:19.239Z,101705.33
2019-02-19T01:03:23.384Z,101702.03
2019-02-19T01:08:25.478Z,101711.73
2019-02-19T01:13:27.753Z,101707.99
2019-02-19T01:18:31.785Z,101704.52
2019-02-19T01:23:34.268Z,101701.70
2019-02-19T01:28:36.397Z,101702.72
2019-02-19T01:33:38.670Z,101704.69
2019-02-19T01:38:43.462Z,101698.05
2019-02-19T01:43:45.468Z,101695.45
2019-02-19T01:48:50.593Z,101700.38
2019-02-19T01:53:52.929Z,101699.59
2019-02-19T01:58:55.217Z,101691.52
2019-02-19T02:03:57.378Z,101677.52
2019-02-19T02:08:59.388Z,101672.09
2019-02-19T02:14:01.622Z,101683.77
2019-02-19T02:19:03.641Z,101678.87
2019-02-19T02:24:05.954Z,101686.23
2019-02-19T02:29:08.165Z,101688.23
2019-02-19T02:34:10.784Z,101691.58
2019-02-19T02:39:12.771Z,101696.97
2019-02-19T02:44:14.839Z,101695.08
2019-02-19T02:49:16.854Z,101709.55
2019-02-19T02:54:18.872Z,101688.45
2019-02-19T02:59:22.138Z,101689.83
2019-02-19T03:04:25.385Z,101679.73
2019-02-19T03:09:27.378Z,101689.56
2019-02-19T03:14:29.407Z,101683.25
2019-02-19T03:19:32.971Z,101684.91
2019-02-19T03:24:35.021Z,101676.48
2019-02-19T03:29:38.273Z,101679.16
2019-02-19T03:34:42.604Z,101691.86
2019-02-19T03:39:44.617Z,101694.66
2019-02-19T03:44:46.634Z,101695.72
2019-02-19T03:49:53.978Z,101707.96
2019-02-19T03:54:56.046Z,101715.36
2019-02-19T03:59:58.503Z,101706.80
2019-02-19T04:05:00.516Z,101714.41
2019-02-19T04:10:04.549Z,101717.23
2019-02-19T04:15:07.779Z,101722.92
2019-02-19T04:20:10.002Z,101723.17
2019-02-19T04:25:12.042Z,101727.81
2019-02-19T04:30:14.070Z,101727.81
2019-02-19T04:35:18.760Z,101729.29
2019-02-19T04:40:20.997Z,101735.09
2019-02-19T04:45:22.977Z,101732.92
2019-02-19T04:50:25.322Z,101735.97
2019-02-19T04:55:27.312Z,101727.06
2019-02-19T05:00:29.336Z,101744.17
2019-02-19T05:05:31.576Z,101743.32
2019-02-19T05:10:33.580Z,101744.64
2019-02-19T05:15:35.590Z,101753.98
2019-02-19T05:20:40.233Z,101746.05
2019-02-19T05:25:42.234Z,101753.13
2019-02-19T05:30:44.672Z,101752.66
2019-02-19T05:35:46.690Z,101752.39
2019-02-19T05:40:48.905Z,101761.53
2019-02-19T05:45:52.292Z,101764.41
2019-02-19T05:50:54.446Z,101763.23
2019-02-19T05:55:56.512Z,101760.39
2019-02-19T06:00:58.690Z,101765.22
2019-02-19T06:06:01.919Z,101773.55
2019-02-19T06:11:04.155Z,101777.88
2019-02-19T06:16:06.197Z,101779.02
2019-02-19T06:21:08.440Z,101782.52
2019-02-19T06:26:10.859Z,101780.89
2019-02-19T06:31:15.490Z,101785.36
2019-02-19T06:36:21.944Z,101794.69
2019-02-19T06:41:24.016Z,101797.05
2019-02-19T06:46:26.051Z,101799.63
2019-02-19T06:51:31.315Z,101806.68
2019-02-19T06:56:43.461Z,101813.30
2019-02-19T07:02:05.585Z,101817.55
2019-02-19T07:07:07.592Z,101817.09
2019-02-19T07:12:18.499Z,101827.40
2019-02-19T07:17:22.891Z,101831.34
2019-02-19T07:22:25.039Z,101841.64
2019-02-19T07:27:27.200Z,101846.11
2019-02-19T07:32:29.303Z,101846.69
2019-02-19T07:37:37.565Z,101851.30
2019-02-19T07:42:39.615Z,101852.98
2019-02-19T07:47:43.919Z,101859.36
2019-02-19T07:52:46.288Z,101863.18
2019-02-19T07:57:48.276Z,101866.38
2019-02-19T08:02:56.492Z,101871.52
2019-02-19T08:08:00.564Z,101877.87
2019-02-19T08:13:04.435Z,101884.31
2019-02-19T08:18:06.462Z,101894.92
2019-02-19T08:23:09.288Z,101893.84
2019-02-19T08:28:16.613Z,101907.76
2019-02-19T08:33:19.091Z,101907.70
2019-02-19T08:38:21.147Z,101920.32
2019-02-19T08:43:23.434Z,101912.41
2019-02-19T08:48:26.535Z,101909.05
2019-02-19T08:53:28.835Z,101912.16
2019-02-19T08:58:30.844Z,101935.59
2019-02-19T09:03:33.114Z,101932.11
2019-02-19T09:08:35.133Z,101932.13
2019-02-19T09:13:37.374Z,101927.03
2019-02-19T09:18:39.376Z,101927.59
2019-02-19T09:23:46.755Z,101939.50
2019-02-19T09:28:48.935Z,101934.13
2019-02-19T09:33:50.965Z,101935.98
2019-02-19T09:38:53.205Z,101944.59
2019-02-19T09:43:55.190Z,101940.69
2019-02-19T09:48:57.199Z,101947.24
2019-02-19T09:54:01.113Z,101952.63
2019-02-19T09:59:05.215Z,101957.14
2019-02-19T10:04:07.380Z,101964.82
2019-02-19T10:09:09.386Z,101973.95
2019-02-19T10:14:11.480Z,101968.81
2019-02-19T10:19:13.571Z,101973.84
2019-02-19T10:24:15.607Z,101978.52
2019-02-19T10:29:18.005Z,101967.17
2019-02-19T10:34:20.402Z,101968.17
2019-02-19T10:39:22.455Z,101976.27
2019-02-19T10:44:24.431Z,101974.70
2019-02-19T10:49:26.444Z,101975.89
2019-02-19T10:54:34.605Z,101973.97
2019-02-19T10:59:36.901Z,101973.97
2019-02-19T11:04:40.039Z,101976.59
2019-02-19T11:09:42.139Z,101983.65
2019-02-19T11:14:44.156Z,101989.89
2019-02-19T11:19:46.184Z,101982.39
2019-02-19T11:24:48.236Z,101993.33
2019-02-19T11:29:50.342Z,101989.30
2019-02-19T11:34:52.356Z,101989.61
2019-02-19T11:39:57.090Z,101994.84
2019-02-19T11:45:00.555Z,101987.91
2019-02-19T11:50:05.269Z,101979.35
2019-02-19T11:55:08.944Z,101982.45
2019-02-19T12:00:14.161Z,101981.31
2019-02-19T12:05:16.210Z,101977.41
2019-02-19T12:10:18.238Z,101977.41
2019-02-19T12:15:20.278Z,101978.44
2019-02-19T12:20:22.342Z,101978.44
2019-02-19T12:25:24.363Z,101974.92
2019-02-19T12:30:26.363Z,101992.60
2019-02-19T12:35:28.650Z,101992.60
2019-02-19T12:40:36.742Z,101996.97
2019-02-19T12:45:38.814Z,101994.24
2019-02-19T12:50:43.881Z,101990.08
2019-02-19T12:55:46.139Z,101994.74
2019-02-19T13:00:48.285Z,101989.45
2019-02-19T13:05:50.306Z,101991.44
2019-02-19T13:10:52.339Z,101996.03
2019-02-19T13:15:54.358Z,101996.49
2019-02-19T13:20:56.659Z,101993.95
2019-02-19T13:25:58.707Z,102004.09
2019-02-19T13:31:00.906Z,102005.33
2019-02-19T13:36:02.901Z,102013.92
2019-02-19T13:41:05.269Z,102012.34
2019-02-19T13:46:07.311Z,102019.09
2019-02-19T13:51:09.912Z,102019.09
2019-02-19T13:56:11.995Z,102018.31
2019-02-19T14:01:14.076Z,102020.16
2019-02-19T14:06:16.086Z,102019.16
2019-02-19T14:11:20.492Z,102017.03
2019-02-19T14:16:29.592Z,102017.03
2019-02-19T14:21:57.640Z,102023.69
2019-02-19T14:27:20.121Z,102026.94
2019-02-19T14:32:45.270Z,102023.48
2019-02-19T14:38:05.330Z,102033.20
2019-02-19T14:43:32.989Z,102039.15
2019-02-19T14:49:10.101Z,102039.66
2019-02-19T14:54:37.255Z,102042.53
2019-02-19T15:00:17.161Z,102041.81
2019-02-19T15:05:41.650Z,102045.95
2019-02-19T15:11:12.329Z,102037.33
2019-02-19T15:16:30.049Z,102044.13
2019-02-19T15:21:40.690Z,102039.63
2019-02-19T15:27:09.215Z,102046.73
2019-02-19T15:32:29.413Z,102052.45
2019-02-19T15:37:49.619Z,102049.12
2019-02-19T15:43:11.570Z,102055.41
2019-02-19T15:48:51.964Z,102058.75
2019-02-19T15:54:18.840Z,102065.20
2019-02-19T15:59:38.811Z,102070.66
2019-02-19T16:04:51.013Z,102066.23
2019-02-19T16:10:12.720Z,102059.66
2019-02-19T16:15:20.807Z,102066.53
2019-02-19T16:20:38.120Z,102063.09
2019-02-19T16:26:08.501Z,102066.80
2019-02-19T16:31:33.414Z,102069.05
2019-02-19T16:36:55.194Z,102079.12
2019-02-19T16:42:12.265Z,102086.03
2019-02-19T16:47:24.219Z,102090.84
2019-02-19T16:52:31.190Z,102083.12
2019-02-19T16:57:58.800Z,102098.61
2019-02-19T17:03:26.645Z,102092.17
2019-02-19T17:08:53.616Z,102089.91
2019-02-19T17:14:32.689Z,102096.31
2019-02-19T17:19:56.815Z,102091.63
2019-02-19T17:25:17.571Z,102095.89
2019-02-19T17:30:40.754Z,102095.33
2019-02-19T17:36:10.297Z,102102.59
2019-02-19T17:41:37.985Z,102100.66
2019-02-19T17:47:16.212Z,102106.38
2019-02-19T17:52:37.878Z,102108.89
2019-02-19T17:57:59.496Z,102110.16
2019-02-19T18:03:13.007Z,102124.88
2019-02-19T18:08:33.833Z,102128.47
2019-02-19T18:13:57.134Z,102129.52
2019-02-19T18:18:59.191Z,102132.83
2019-02-19T18:24:01.230Z,102137.80
2019-02-19T18:29:04.287Z,102141.81
2019-02-19T18:34:07.160Z,102146.73
2019-02-19T18:39:09.276Z,102145.05
2019-02-19T18:44:11.325Z,102146.55
2019-02-19T18:49:16.573Z,102143.23
2019-02-19T18:54:21.836Z,102144.30
2019-02-19T18:59:25.587Z,102144.50
2019-02-19T19:04:27.931Z,102141.08
2019-02-19T19:09:29.933Z,102140.91
2019-02-19T19:14:31.947Z,102149.99
2019-02-19T19:19:34.079Z,102150.17
2019-02-19T19:24:36.434Z,102151.32
2019-02-19T19:29:42.791Z,102149.33
2019-02-19T19:34:45.115Z,102146.77
2019-02-19T19:39:47.473Z,102145.44
2019-02-19T19:44:49.693Z,102145.44
2019-02-19T19:49:51.858Z,102148.11
2019-02-19T19:54:53.897Z,102147.25
2019-02-19T20:00:00.324Z,102145.81
2019-02-19T20:05:02.386Z,102153.38
2019-02-19T20:10:05.891Z,102155.30
2019-02-19T20:15:08.591Z,102146.77
2019-02-19T20:20:10.620Z,102146.19
2019-02-19T20:25:12.700Z,102146.09
2019-02-19T20:30:19.781Z,102148.47
2019-02-19T20:35:22.229Z,102149.98
2019-02-19T20:40:24.544Z,102158.41
2019-02-19T20:45:26.721Z,102157.95
2019-02-19T20:50:28.904Z,102161.61
2019-02-19T20:55:36.864Z,102166.03
2019-02-19T21:00:40.515Z,102169.37
2019-02-19T21:05:42.727Z,102170.00
2019-02-19T21:10:44.773Z,102165.64
2019-02-19T21:15:46.944Z,102167.75
2019-02-19T21:20:50.844Z,102166.63
2019-02-19T21:25:53.092Z,102164.94
2019-02-19T21:30:55.349Z,102164.27
2019-02-19T21:35:58.005Z,102168.49
2019-02-19T21:41:00.299Z,102170.13
2019-02-19T21:46:02.268Z,102175.14
2019-02-19T21:51:07.438Z,102173.14
2019-02-19T21:56:11.517Z,102171.92
2019-02-19T22:01:18.726Z,102174.58
2019-02-19T22:06:23.664Z,102168.44
2019-02-19T22:11:26.841Z,102174.58
2019-02-19T22:16:30.096Z,102174.36
2019-02-19T22:22:03.436Z,102179.01
2019-02-19T22:27:03.084Z,102177.20
2019-02-19T22:32:06.315Z,102178.37
2019-02-19T22:37:08.313Z,102184.41
2019-02-19T22:42:10.404Z,102177.98
2019-02-19T22:47:12.408Z,102170.13
2019-02-19T22:52:15.719Z,102174.02
2019-02-19T22:57:18.010Z,102174.94
2019-02-19T23:02:22.730Z,102172.97
2019-02-19T23:07:27.757Z,102174.31
2019-02-19T23:12:29.965Z,102178.17
2019-02-19T23:17:31.956Z,102171.55
2019-02-19T23:22:34.276Z,102173.06
2019-02-19T23:27:36.292Z,102168.45
2019-02-19T23:32:38.707Z,102170.25
2019-02-19T23:37:40.714Z,102155.84
2019-02-19T23:42:42.749Z,102159.81
2019-02-19T23:47:44.745Z,102175.36
2019-02-19T23:52:47.033Z,102161.63
2019-02-19T23:57:49.040Z,102162.29
